Time;durP1;ratioP1;P1;durP2;ratioP2;P2;SDS_P1;SDS_P2;PMS_P1;PMS_P2;Temp;Humidity;BMP_temperature;BMP_pressure;BME280_temperature;BME280_humidity;BME280_pressure;Samples;Min_cycle;Max_cycle;Signal;HPM_P1;HPM_P2
2022/05/28 00:01:29;;;;;;;3.37;1.50;;;12.30;99.90;;;;;;5000701;28;20493;-66
2022/05/28 00:03:57;;;;;;;3.93;1.77;;;12.30;99.90;;;;;;4990844;28;20189;-66
2022/05/28 00:06:24;;;;;;;2.30;1.17;;;12.50;99.90;;;;;;4999874;28;20246;-67
2022/05/28 00:08:50;;;;;;;4.80;2.50;;;12.30;99.90;;;;;;4997541;28;20422;-66
2022/05/28 00:11:17;;;;;;;2.87;1.80;;;12.30;99.90;;;;;;5002276;28;20438;-67
2022/05/28 00:13:44;;;;;;;5.10;2.13;;;12.20;99.90;;;;;;5002215;28;20427;-66
2022/05/28 00:16:11;;;;;;;4.93;2.50;;;12.10;99.90;;;;;;4996959;28;20417;-66
2022/05/28 00:18:38;;;;;;;6.23;2.40;;;12.10;99.90;;;;;;5007427;28;20842;-66
2022/05/28 00:21:04;;;;;;;5.70;2.30;;;12.00;99.90;;;;;;5007944;28;20919;-66
2022/05/28 00:23:30;;;;;;;7.50;2.50;;;11.90;99.90;;;;;;4991097;28;20498;-66
2022/05/28 00:25:55;;;;;;;15.37;2.97;;;11.90;99.90;;;;;;4989930;28;20243;-66
2022/05/28 00:28:21;;;;;;;7.50;3.40;;;11.80;99.90;;;;;;4988825;28;20435;-66
2022/05/28 00:30:50;;;;;;;5.77;2.23;;;11.80;99.90;;;;;;4995142;28;20187;-66
2022/05/28 00:33:16;;;;;;;6.23;2.97;;;11.70;99.90;;;;;;5005747;28;20179;-66
2022/05/28 00:35:42;;;;;;;10.17;2.50;;;11.70;99.90;;;;;;5004841;28;20836;-67
2022/05/28 00:38:08;;;;;;;6.50;3.40;;;11.50;99.90;;;;;;4995883;28;20582;-66
2022/05/28 00:40:34;;;;;;;11.07;3.40;;;11.50;99.90;;;;;;5002902;28;20199;-67
2022/05/28 00:43:01;;;;;;;5.50;2.53;;;11.50;99.90;;;;;;4998198;28;20493;-66
2022/05/28 00:45:29;;;;;;;14.70;3.37;;;11.40;99.90;;;;;;5006602;28;20214;-66
2022/05/28 00:47:58;;;;;;;4.80;3.13;;;11.30;99.90;;;;;;4994189;28;20458;-66
2022/05/28 00:50:25;;;;;;;16.90;3.00;;;11.40;99.90;;;;;;4990198;28;20416;-67
2022/05/28 00:52:52;;;;;;;11.40;3.00;;;11.40;99.90;;;;;;5006702;28;20418;-67
2022/05/28 00:55:19;;;;;;;4.00;2.33;;;11.30;99.90;;;;;;5007307;28;20422;-67
2022/05/28 00:57:46;;;;;;;10.03;3.30;;;11.30;99.90;;;;;;5006747;28;20414;-66
2022/05/28 01:00:15;;;;;;;8.07;3.07;;;11.30;99.90;;;;;;4997676;28;20431;-67
2022/05/28 01:02:55;;;;;;;7.37;2.83;;;11.30;99.90;;;;;;4998838;28;20489;-66
2022/05/28 01:05:49;;;;;;;5.80;2.60;;;11.30;99.90;;;;;;5003627;28;20425;-66
2022/05/28 01:08:31;;;;;;;5.13;3.50;;;11.30;99.90;;;;;;4993221;28;20406;-66
2022/05/28 01:11:16;;;;;;;8.23;3.80;;;11.30;99.90;;;;;;4989075;28;20426;-66
2022/05/28 01:14:00;;;;;;;10.90;2.90;;;11.30;99.90;;;;;;4977351;28;20467;-66
2022/05/28 01:16:31;;;;;;;8.37;2.80;;;11.20;99.90;;;;;;4999028;28;20914;-66
2022/05/28 01:19:12;;;;;;;7.10;2.77;;;11.20;99.90;;;;;;5006665;28;20543;-66
2022/05/28 01:22:07;;;;;;;13.10;3.77;;;11.20;99.90;;;;;;4999344;28;20543;-66
2022/05/28 01:25:08;;;;;;;4.20;2.87;;;11.20;99.90;;;;;;5005796;28;20463;-66
2022/05/28 01:27:45;;;;;;;13.93;3.57;;;11.20;99.90;;;;;;4973425;28;21076;-67
2022/05/28 01:30:14;;;;;;;10.87;2.43;;;11.20;99.90;;;;;;5001844;28;20462;-66
2022/05/28 01:32:41;;;;;;;5.80;2.70;;;11.20;99.90;;;;;;4992967;28;20656;-66
2022/05/28 01:35:10;;;;;;;5.97;2.37;;;11.20;99.90;;;;;;4994464;28;20419;-66
2022/05/28 01:37:37;;;;;;;4.37;1.80;;;11.20;99.90;;;;;;4986598;28;20431;-67
2022/05/28 01:40:07;;;;;;;10.50;3.97;;;11.20;99.90;;;;;;5003592;28;20423;-67
2022/05/28 01:42:36;;;;;;;12.40;2.80;;;11.20;99.90;;;;;;4999300;28;20426;-67
2022/05/28 01:45:04;;;;;;;3.10;1.70;;;11.20;99.90;;;;;;5006556;28;20438;-66
2022/05/28 01:47:30;;;;;;;6.17;2.63;;;11.20;99.90;;;;;;4997612;28;20469;-67
2022/05/28 01:49:58;;;;;;;8.23;2.57;;;11.10;99.90;;;;;;5004433;28;20425;-66
2022/05/28 01:52:27;;;;;;;5.50;1.77;;;11.10;99.90;;;;;;5005926;28;20418;-66
2022/05/28 01:54:53;;;;;;;4.37;2.27;;;11.10;99.90;;;;;;5006434;28;20414;-66
2022/05/28 01:57:19;;;;;;;21.40;2.53;;;11.10;99.90;;;;;;5005761;28;20429;-67
2022/05/28 01:59:45;;;;;;;7.83;1.97;;;11.00;99.90;;;;;;4997477;28;20480;-66
2022/05/28 02:02:14;;;;;;;5.73;2.10;;;11.00;99.90;;;;;;4991955;28;20887;-66
2022/05/28 02:04:42;;;;;;;4.50;1.93;;;11.00;99.90;;;;;;4984466;28;20458;-66
2022/05/28 02:07:10;;;;;;;5.53;2.40;;;10.90;99.90;;;;;;4993646;28;20486;-66
2022/05/28 02:09:43;;;;;;;13.40;2.80;;;10.90;99.90;;;;;;4995602;28;20421;-66
2022/05/28 02:12:30;;;;;;;7.77;1.97;;;10.80;99.90;;;;;;4995196;28;20434;-67
2022/05/28 02:15:29;;;;;;;6.00;2.50;;;10.70;99.90;;;;;;5006237;28;20485;-66
2022/05/28 02:18:02;;;;;;;4.23;1.43;;;10.70;99.90;;;;;;4995070;28;20409;-66
2022/05/28 02:20:36;;;;;;;22.30;2.37;;;10.60;99.90;;;;;;5006143;28;20433;-66
2022/05/28 02:23:12;;;;;;;4.57;1.83;;;10.60;99.90;;;;;;4999615;28;20441;-66
2022/05/28 02:26:10;;;;;;;5.53;2.20;;;10.60;99.90;;;;;;4985973;28;20568;-66
2022/05/28 02:28:38;;;;;;;6.47;2.53;;;10.50;99.90;;;;;;4990709;28;21281;-66
2022/05/28 02:31:14;;;;;;;3.10;1.37;;;10.40;99.90;;;;;;4986088;28;20530;-66
2022/05/28 02:33:41;;;;;;;3.70;2.40;;;10.30;99.90;;;;;;5002440;28;20421;-66
2022/05/28 02:36:07;;;;;;;9.53;2.20;;;10.30;99.90;;;;;;4994703;28;20427;-67
2022/05/28 02:38:32;;;;;;;5.80;2.10;;;10.20;99.90;;;;;;5002309;28;20669;-67
2022/05/28 02:40:59;;;;;;;8.90;2.77;;;10.10;99.90;;;;;;5004228;28;20580;-66
2022/05/28 02:43:25;;;;;;;6.97;2.30;;;10.10;99.90;;;;;;5005244;28;20179;-66
2022/05/28 02:45:51;;;;;;;13.87;1.80;;;10.10;99.90;;;;;;5008149;28;20465;-66
2022/05/28 02:48:17;;;;;;;7.57;2.17;;;10.10;99.90;;;;;;4998650;28;20780;-66
2022/05/28 02:50:42;;;;;;;9.20;2.00;;;10.10;99.90;;;;;;4997126;28;20423;-66
2022/05/28 02:53:08;;;;;;;5.67;2.33;;;10.00;99.90;;;;;;4993953;28;20188;-66
2022/05/28 02:55:34;;;;;;;7.37;1.87;;;10.10;99.90;;;;;;4989525;28;20269;-66
2022/05/28 02:58:00;;;;;;;7.23;1.80;;;10.10;99.90;;;;;;5008994;28;20236;-66
2022/05/28 03:00:26;;;;;;;13.00;2.23;;;10.10;99.90;;;;;;4997820;28;20438;-66
2022/05/28 03:02:52;;;;;;;2.70;1.43;;;10.10;99.90;;;;;;4983773;28;20179;-66
2022/05/28 03:05:22;;;;;;;4.87;2.17;;;10.20;99.90;;;;;;5009308;28;20830;-66
2022/05/28 03:07:47;;;;;;;4.33;2.20;;;10.10;99.90;;;;;;5002462;28;20640;-67
2022/05/28 03:10:13;;;;;;;5.47;1.90;;;10.00;99.90;;;;;;5003056;28;20422;-67
2022/05/28 03:12:39;;;;;;;4.53;2.33;;;10.00;99.90;;;;;;4991072;28;20194;-67
2022/05/28 03:15:06;;;;;;;4.87;1.67;;;10.10;99.90;;;;;;4993884;28;20186;-67
2022/05/28 03:17:32;;;;;;;5.23;2.17;;;9.90;99.90;;;;;;4998790;28;20812;-66
2022/05/28 03:20:00;;;;;;;4.30;1.97;;;9.90;99.90;;;;;;5009400;28;20422;-66
2022/05/28 03:22:26;;;;;;;14.57;2.20;;;9.90;99.90;;;;;;5002646;28;20566;-67
2022/05/28 03:24:52;;;;;;;38.00;2.40;;;9.80;99.90;;;;;;5001132;28;20565;-66
2022/05/28 03:27:17;;;;;;;13.90;1.97;;;9.80;99.90;;;;;;5009315;28;20556;-67
2022/05/28 03:29:43;;;;;;;5.70;2.40;;;9.70;99.90;;;;;;5007878;28;20195;-66
2022/05/28 03:32:08;;;;;;;10.43;2.23;;;9.70;99.90;;;;;;5009195;28;20187;-66
2022/05/28 03:34:34;;;;;;;5.53;2.00;;;9.70;99.90;;;;;;5008902;28;20244;-66
2022/05/28 03:37:00;;;;;;;5.40;2.27;;;9.70;99.90;;;;;;4984009;28;20717;-66
2022/05/28 03:39:25;;;;;;;9.30;2.63;;;9.60;99.90;;;;;;4992906;28;20486;-67
2022/05/28 03:41:51;;;;;;;5.20;2.50;;;9.60;99.90;;;;;;5003050;28;20202;-67
2022/05/28 03:44:17;;;;;;;6.40;2.00;;;9.50;99.90;;;;;;4986089;28;20234;-66
2022/05/28 03:46:43;;;;;;;3.47;1.93;;;9.50;99.90;;;;;;4996415;28;20262;-66
2022/05/28 03:49:21;;;;;;;7.40;1.63;;;9.40;99.90;;;;;;5002530;28;20183;-67
2022/05/28 03:51:47;;;;;;;7.77;2.13;;;9.40;99.90;;;;;;5006554;28;20449;-66
2022/05/28 03:54:13;;;;;;;6.77;1.97;;;9.40;99.90;;;;;;5008202;28;20509;-66
2022/05/28 03:56:41;;;;;;;4.97;2.03;;;9.40;99.90;;;;;;5007666;28;20905;-67
2022/05/28 03:59:07;;;;;;;8.30;2.80;;;9.40;99.90;;;;;;4998282;28;20544;-66
2022/05/28 04:01:33;;;;;;;7.60;1.30;;;9.40;99.90;;;;;;4995540;28;20434;-67
2022/05/28 04:03:59;;;;;;;4.20;1.70;;;9.40;99.90;;;;;;5007297;28;20433;-67
2022/05/28 04:06:25;;;;;;;3.80;1.40;;;9.40;99.90;;;;;;5008143;28;20485;-66
2022/05/28 04:08:51;;;;;;;7.93;1.63;;;9.40;99.90;;;;;;4995510;28;20191;-66
2022/05/28 04:11:17;;;;;;;3.23;1.43;;;9.30;99.90;;;;;;4999606;28;20825;-67
2022/05/28 04:13:43;;;;;;;6.43;1.57;;;9.30;99.90;;;;;;5007051;28;20187;-66
2022/05/28 04:16:09;;;;;;;3.77;1.23;;;9.30;99.90;;;;;;5002466;28;20888;-67
2022/05/28 04:18:35;;;;;;;5.03;1.43;;;9.30;99.90;;;;;;5007115;28;20445;-66
2022/05/28 04:21:01;;;;;;;4.13;1.53;;;9.30;99.90;;;;;;5008065;28;20446;-66
2022/05/28 04:23:26;;;;;;;11.33;2.10;;;9.30;99.90;;;;;;4985039;28;20198;-67
2022/05/28 04:25:52;;;;;;;8.43;1.90;;;9.30;99.90;;;;;;4992934;28;20298;-67
2022/05/28 04:28:18;;;;;;;10.73;2.00;;;9.40;99.90;;;;;;5007454;28;20625;-67
2022/05/28 04:30:43;;;;;;;4.43;1.73;;;9.50;99.90;;;;;;4993075;28;20237;-66
2022/05/28 04:33:09;;;;;;;17.00;2.70;;;9.40;99.90;;;;;;4987307;28;20224;-67
2022/05/28 04:35:34;;;;;;;2.40;1.27;;;9.40;99.90;;;;;;4991980;28;20195;-66
2022/05/28 04:38:00;;;;;;;2.77;1.00;;;9.40;99.90;;;;;;5005365;28;20265;-67
2022/05/28 04:40:26;;;;;;;10.63;2.10;;;9.50;99.90;;;;;;5005870;28;20265;-66
2022/05/28 04:42:51;;;;;;;2.53;1.20;;;9.50;99.90;;;;;;4995973;28;20250;-66
2022/05/28 04:45:17;;;;;;;18.77;2.80;;;9.50;99.90;;;;;;5003757;28;20203;-66
2022/05/28 04:47:43;;;;;;;4.50;2.00;;;9.40;99.90;;;;;;4980917;28;20204;-67
2022/05/28 04:50:09;;;;;;;3.80;1.30;;;9.40;99.90;;;;;;4994493;28;20187;-67
2022/05/28 04:52:34;;;;;;;6.53;1.90;;;9.40;99.90;;;;;;4997026;28;20192;-66
2022/05/28 04:55:00;;;;;;;6.03;2.47;;;9.30;99.90;;;;;;5006514;28;20752;-67
2022/05/28 04:57:26;;;;;;;6.20;2.00;;;9.30;99.90;;;;;;5006956;28;20201;-66
2022/05/28 04:59:51;;;;;;;10.17;1.60;;;9.30;99.90;;;;;;4997477;28;20183;-66
2022/05/28 05:02:17;;;;;;;10.73;2.07;;;9.20;99.90;;;;;;5006632;28;20593;-67
2022/05/28 05:04:43;;;;;;;4.30;1.87;;;9.40;99.90;;;;;;5007185;28;20218;-67
2022/05/28 05:07:08;;;;;;;5.87;2.27;;;9.30;99.90;;;;;;5001406;28;20207;-66
2022/05/28 05:09:34;;;;;;;3.60;1.80;;;9.40;99.90;;;;;;4993645;28;20190;-67
2022/05/28 05:12:00;;;;;;;6.80;1.83;;;9.40;99.90;;;;;;4996962;28;20219;-67
2022/05/28 05:14:26;;;;;;;5.97;1.90;;;9.40;99.90;;;;;;5006844;28;20182;-67
2022/05/28 05:16:52;;;;;;;12.93;2.20;;;9.50;99.90;;;;;;4997974;28;20197;-67
2022/05/28 05:19:17;;;;;;;9.30;1.23;;;9.50;99.90;;;;;;4998071;28;20426;-67
2022/05/28 05:21:43;;;;;;;5.00;1.63;;;9.60;99.90;;;;;;5003138;28;20223;-67
2022/05/28 05:24:08;;;;;;;9.30;2.00;;;9.60;99.90;;;;;;4990184;28;20188;-67
2022/05/28 05:26:34;;;;;;;6.00;1.47;;;9.60;99.90;;;;;;4994702;28;20742;-66
2022/05/28 05:29:00;;;;;;;13.43;1.80;;;9.60;99.90;;;;;;5002528;28;20183;-66
2022/05/28 05:31:25;;;;;;;6.30;1.87;;;9.70;99.90;;;;;;4992468;28;20373;-66
2022/05/28 05:33:51;;;;;;;4.30;1.63;;;9.70;99.90;;;;;;5002789;28;20191;-65
2022/05/28 05:36:17;;;;;;;12.63;2.30;;;9.70;99.90;;;;;;5004321;28;20222;-66
2022/05/28 05:38:42;;;;;;;9.00;2.33;;;9.80;99.90;;;;;;5006197;28;21013;-66
2022/05/28 05:41:08;;;;;;;6.07;2.23;;;9.90;99.90;;;;;;5001318;28;20183;-66
2022/05/28 05:43:34;;;;;;;4.97;2.03;;;10.00;99.90;;;;;;4994487;28;20191;-66
2022/05/28 05:46:01;;;;;;;5.57;2.30;;;9.90;99.90;;;;;;4994240;28;20798;-67
2022/05/28 05:48:29;;;;;;;6.57;2.40;;;9.90;99.90;;;;;;5001096;28;20187;-66
2022/05/28 05:50:54;;;;;;;8.20;1.83;;;10.00;99.90;;;;;;4982191;28;20423;-66
2022/05/28 05:53:20;;;;;;;5.10;1.63;;;10.00;99.90;;;;;;4987383;28;20927;-66
2022/05/28 05:55:47;;;;;;;5.07;2.10;;;10.00;99.90;;;;;;4983200;28;20183;-66
2022/05/28 05:58:13;;;;;;;3.83;1.27;;;10.10;99.90;;;;;;4999997;28;20869;-65
2022/05/28 06:00:39;;;;;;;4.23;2.20;;;10.10;99.90;;;;;;5000249;28;20438;-66
2022/05/28 06:03:06;;;;;;;5.53;1.60;;;10.20;99.90;;;;;;5006256;28;20517;-66
2022/05/28 06:05:31;;;;;;;3.45;1.10;;;10.20;99.90;;;;;;5003946;28;21102;-66
2022/05/28 06:07:57;;;;;;;5.07;1.87;;;10.20;99.90;;;;;;4980606;28;20468;-66
2022/05/28 06:10:23;;;;;;;9.80;2.37;;;10.20;99.90;;;;;;4986409;28;20535;-66
2022/05/28 06:12:49;;;;;;;7.50;1.93;;;10.30;99.90;;;;;;4984862;28;20555;-66
2022/05/28 06:15:14;;;;;;;6.00;2.43;;;10.40;99.90;;;;;;4997603;28;20606;-66
2022/05/28 06:17:40;;;;;;;8.53;2.00;;;10.30;99.90;;;;;;5000516;28;20429;-66
2022/05/28 06:20:09;;;;;;;4.73;1.80;;;10.30;99.90;;;;;;5010638;28;20191;-66
2022/05/28 06:22:35;;;;;;;5.40;1.60;;;10.40;99.90;;;;;;4989656;28;20520;-66
2022/05/28 06:25:01;;;;;;;7.90;1.80;;;10.40;99.90;;;;;;4982109;28;20434;-65
2022/05/28 06:27:27;;;;;;;11.73;1.80;;;10.40;99.90;;;;;;4980617;28;20303;-66
2022/05/28 06:29:52;;;;;;;9.83;2.17;;;10.50;99.90;;;;;;4992383;28;20179;-66
2022/05/28 06:32:18;;;;;;;6.30;1.47;;;10.50;99.70;;;;;;4993977;28;20943;-66
2022/05/28 06:34:44;;;;;;;4.47;1.50;;;10.50;99.80;;;;;;4986076;28;20191;-66
2022/05/28 06:37:12;;;;;;;5.50;1.57;;;10.50;99.90;;;;;;4987742;28;20435;-66
2022/05/28 06:39:38;;;;;;;9.60;1.87;;;10.60;99.90;;;;;;5007012;28;20186;-66
2022/05/28 06:42:05;;;;;;;5.87;1.40;;;10.80;99.40;;;;;;4989724;28;20583;-66
2022/05/28 06:44:31;;;;;;;2.50;1.30;;;10.80;99.80;;;;;;4989721;28;20434;-66
2022/05/28 06:46:57;;;;;;;6.50;1.80;;;10.90;99.00;;;;;;5007777;28;20604;-66
2022/05/28 06:49:23;;;;;;;7.27;2.07;;;11.00;97.60;;;;;;4997749;28;20539;-66
2022/05/28 06:51:50;;;;;;;15.97;2.37;;;11.00;96.50;;;;;;5004085;28;20934;-67
2022/05/28 06:54:16;;;;;;;7.00;1.50;;;11.00;95.10;;;;;;4993446;28;20207;-66
2022/05/28 06:56:42;;;;;;;4.47;1.20;;;11.00;95.00;;;;;;4991964;28;20446;-66
2022/05/28 06:59:08;;;;;;;12.10;1.20;;;11.20;94.90;;;;;;5007014;28;20195;-67
2022/05/28 07:01:34;;;;;;;4.53;1.87;;;11.20;94.70;;;;;;4991438;28;20204;-67
2022/05/28 07:03:59;;;;;;;4.10;0.90;;;11.40;95.40;;;;;;4987723;28;20215;-67
2022/05/28 07:06:27;;;;;;;1.60;0.97;;;11.60;94.70;;;;;;4988652;28;20261;-67
2022/05/28 07:08:52;;;;;;;4.03;1.50;;;11.70;93.60;;;;;;4973353;28;20553;-67
2022/05/28 07:11:18;;;;;;;5.10;1.30;;;11.70;93.50;;;;;;4998120;28;20965;-67
2022/05/28 07:13:44;;;;;;;6.13;1.20;;;11.90;92.70;;;;;;4983933;28;20620;-66
2022/05/28 07:16:11;;;;;;;4.33;1.00;;;12.00;92.90;;;;;;4988175;28;20274;-67
2022/05/28 07:18:38;;;;;;;2.97;1.00;;;12.20;92.80;;;;;;4989200;28;20229;-67
2022/05/28 07:21:05;;;;;;;3.33;0.83;;;12.40;92.60;;;;;;4994555;28;20440;-67
2022/05/28 07:23:32;;;;;;;10.23;1.33;;;12.70;91.80;;;;;;4993378;28;20962;-66
2022/05/28 07:26:18;;;;;;;3.47;0.90;;;13.10;90.40;;;;;;4992571;28;20474;-66
2022/05/28 07:28:45;;;;;;;10.30;1.10;;;13.40;90.80;;;;;;4994786;28;20435;-66
2022/05/28 07:31:14;;;;;;;5.30;1.37;;;13.60;91.00;;;;;;4993960;28;20450;-67
2022/05/28 07:33:42;;;;;;;2.67;0.77;;;14.20;89.40;;;;;;4998937;28;20426;-67
2022/05/28 07:36:10;;;;;;;9.93;1.77;;;15.20;86.90;;;;;;4998271;28;20597;-66
2022/05/28 07:38:37;;;;;;;7.27;1.47;;;16.10;83.70;;;;;;4991402;28;20892;-65
2022/05/28 07:41:16;;;;;;;4.27;0.93;;;16.70;80.30;;;;;;4999274;28;20439;-65
2022/05/28 07:43:42;;;;;;;3.43;1.17;;;17.00;79.90;;;;;;5004860;28;20421;-66
2022/05/28 07:46:14;;;;;;;4.07;1.13;;;18.00;78.00;;;;;;4997983;28;20915;-66
2022/05/28 07:48:40;;;;;;;2.13;0.67;;;18.20;75.30;;;;;;5007617;28;20974;-67
2022/05/28 07:51:06;;;;;;;5.97;1.03;;;18.50;73.50;;;;;;4993049;28;20485;-66
2022/05/28 07:53:32;;;;;;;5.47;1.67;;;18.10;73.90;;;;;;4984154;28;20971;-66
2022/05/28 07:56:03;;;;;;;6.80;1.10;;;18.20;71.20;;;;;;5000698;28;20217;-66
2022/05/28 07:58:29;;;;;;;4.40;1.30;;;17.90;73.10;;;;;;4999327;28;20628;-66
2022/05/28 08:00:55;;;;;;;2.73;0.70;;;18.70;70.60;;;;;;4987162;28;20516;-66
2022/05/28 08:03:21;;;;;;;2.90;1.43;;;18.70;70.60;;;;;;4995720;28;20241;-66
2022/05/28 08:05:49;;;;;;;3.93;1.27;;;19.60;67.70;;;;;;4985926;28;20443;-66
2022/05/28 08:08:16;;;;;;;2.00;0.73;;;19.50;67.50;;;;;;4990552;28;20205;-66
2022/05/28 08:10:42;;;;;;;7.33;1.07;;;19.00;68.30;;;;;;5000826;28;20468;-66
2022/05/28 08:13:14;;;;;;;3.03;1.03;;;18.80;69.00;;;;;;4994807;28;20438;-66
2022/05/28 08:15:43;;;;;;;4.13;0.97;;;19.20;68.00;;;;;;5005461;28;20185;-66
2022/05/28 08:18:14;;;;;;;3.33;0.83;;;19.50;65.40;;;;;;4987782;28;20434;-66
2022/05/28 08:23:24;;;;;;;4.83;1.00;;;19.30;61.50;;;;;;4979008;28;20517;-64
2022/05/28 08:25:50;;;;;;;1.63;0.60;;;19.10;64.20;;;;;;4972221;28;20526;-65
2022/05/28 08:28:18;;;;;;;6.93;1.33;;;18.30;65.80;;;;;;4976053;28;20204;-65
2022/05/28 08:30:44;;;;;;;3.03;1.27;;;18.40;64.80;;;;;;4972581;28;20432;-65
2022/05/28 08:33:12;;;;;;;2.90;0.93;;;18.60;64.30;;;;;;4987781;28;20786;-65
2022/05/28 08:35:40;;;;;;;4.33;1.20;;;18.80;66.60;;;;;;4985443;28;20979;-65
2022/05/28 08:38:11;;;;;;;2.47;0.83;;;19.00;62.80;;;;;;4985755;28;20600;-66
2022/05/28 08:40:59;;;;;;;2.63;1.00;;;19.40;60.20;;;;;;4985707;28;20416;-66
2022/05/28 08:43:30;;;;;;;4.23;0.83;;;19.60;59.20;;;;;;4985973;28;20453;-64
2022/05/28 08:45:56;;;;;;;11.00;1.87;;;19.50;60.00;;;;;;4999543;28;20562;-65
2022/05/28 08:48:50;;;;;;;3.40;1.37;;;19.70;60.20;;;;;;4990534;28;20554;-65
2022/05/28 08:51:48;;;;;;;4.03;0.80;;;19.60;60.90;;;;;;4995417;28;20440;-65
2022/05/28 08:54:38;;;;;;;3.90;1.17;;;20.10;59.30;;;;;;4998388;28;20951;-65
2022/05/28 08:57:18;;;;;;;2.30;0.97;;;20.00;60.80;;;;;;4992631;28;20853;-66
2022/05/28 08:59:51;;;;;;;6.40;0.73;;;19.80;61.50;;;;;;5000953;28;20426;-65
2022/05/28 09:02:49;;;;;;;1.83;0.73;;;19.20;62.20;;;;;;4987873;28;20457;-65
2022/05/28 09:05:33;;;;;;;2.10;0.77;;;19.00;61.90;;;;;;4986210;28;20442;-65
2022/05/28 09:08:03;;;;;;;3.40;1.10;;;18.70;62.80;;;;;;4987552;28;21004;-65
2022/05/28 09:10:35;;;;;;;2.00;0.77;;;18.90;62.30;;;;;;4995151;28;20420;-64
2022/05/28 09:13:19;;;;;;;4.70;0.83;;;19.30;61.90;;;;;;4998032;28;20425;-65
2022/05/28 09:15:45;;;;;;;1.70;0.80;;;19.80;59.50;;;;;;4989909;28;20946;-65
2022/05/28 09:18:12;;;;;;;2.43;0.80;;;19.80;58.50;;;;;;4994201;28;20509;-66
2022/05/28 09:20:43;;;;;;;5.53;1.40;;;19.90;59.10;;;;;;5006515;28;20279;-65
2022/05/28 09:23:09;;;;;;;6.70;1.50;;;19.90;58.50;;;;;;5002702;28;20487;-65
2022/05/28 09:25:40;;;;;;;2.53;0.80;;;19.30;62.50;;;;;;4995300;28;20465;-65
2022/05/28 09:28:18;;;;;;;6.27;1.57;;;19.40;61.50;;;;;;5006745;28;20461;-65
2022/05/28 09:30:58;;;;;;;2.50;1.00;;;18.90;61.40;;;;;;4981813;28;20443;-65
2022/05/28 09:33:44;;;;;;;2.53;0.93;;;18.80;62.50;;;;;;4977260;28;20430;-65
2022/05/28 09:36:28;;;;;;;4.73;1.23;;;19.10;62.00;;;;;;4988920;28;20418;-65
2022/05/28 09:39:09;;;;;;;2.47;0.90;;;19.10;61.60;;;;;;4975675;28;20664;-65
2022/05/28 09:42:07;;;;;;;6.03;0.90;;;19.70;59.40;;;;;;4983031;28;20966;-65
2022/05/28 09:44:59;;;;;;;3.50;1.13;;;19.70;59.10;;;;;;4982042;28;20439;-65
2022/05/28 09:47:25;;;;;;;4.13;1.17;;;19.60;61.20;;;;;;4980049;28;20868;-65
2022/05/28 09:49:54;;;;;;;2.83;0.87;;;19.50;60.70;;;;;;4987132;28;20435;-65
2022/05/28 09:52:24;;;;;;;2.53;1.00;;;18.60;63.40;;;;;;4984243;28;20279;-65
2022/05/28 09:54:50;;;;;;;10.83;1.37;;;18.00;63.40;;;;;;4998675;28;20932;-65
2022/05/28 09:57:27;;;;;;;5.63;0.70;;;17.40;64.60;;;;;;4989574;28;20437;-65
2022/05/28 10:00:03;;;;;;;1.83;0.63;;;17.10;65.30;;;;;;4993662;28;20193;-66
2022/05/28 10:02:33;;;;;;;11.60;0.87;;;17.30;63.00;;;;;;4992490;28;20430;-67
2022/05/28 10:05:12;;;;;;;4.40;0.90;;;17.30;63.60;;;;;;4984198;28;20502;-67
2022/05/28 10:07:45;;;;;;;1.80;0.90;;;17.40;65.20;;;;;;4988869;28;20491;-65
2022/05/28 10:10:22;;;;;;;5.53;0.70;;;17.40;66.40;;;;;;4986475;28;20434;-65
2022/05/28 10:12:49;;;;;;;5.77;1.17;;;17.40;63.00;;;;;;4990547;28;20456;-65
2022/05/28 10:15:23;;;;;;;7.53;1.33;;;17.10;69.00;;;;;;4991785;28;20423;-65
2022/05/28 10:17:53;;;;;;;3.30;0.90;;;17.10;63.90;;;;;;4990314;28;20529;-65
2022/05/28 10:20:20;;;;;;;2.87;0.87;;;17.00;64.10;;;;;;4989965;28;20438;-65
2022/05/28 10:22:47;;;;;;;1.80;0.90;;;17.10;63.60;;;;;;4994686;28;20903;-65
2022/05/28 10:25:30;;;;;;;4.23;0.87;;;17.20;67.50;;;;;;4997619;28;20884;-66
2022/05/28 10:27:56;;;;;;;2.33;0.87;;;17.20;64.80;;;;;;4989336;28;20607;-65
2022/05/28 10:30:37;;;;;;;1.40;0.80;;;17.30;66.10;;;;;;4990003;28;20434;-65
2022/05/28 10:33:14;;;;;;;2.73;0.80;;;17.50;60.80;;;;;;4984519;28;20185;-65
2022/05/28 10:35:40;;;;;;;5.30;1.43;;;17.60;63.00;;;;;;4990579;28;20423;-65
2022/05/28 10:38:12;;;;;;;3.77;1.07;;;17.30;65.00;;;;;;4986275;28;20751;-65
2022/05/28 10:40:52;;;;;;;12.60;1.17;;;17.30;66.10;;;;;;4984022;28;20474;-65
2022/05/28 10:43:44;;;;;;;1.70;0.80;;;17.20;64.70;;;;;;4980797;28;20423;-65
2022/05/28 10:46:31;;;;;;;1.40;0.60;;;17.30;63.80;;;;;;4983600;28;20471;-65
2022/05/28 10:48:59;;;;;;;6.67;0.83;;;17.10;63.40;;;;;;4993580;28;20980;-65
2022/05/28 10:51:48;;;;;;;7.73;0.90;;;17.10;62.60;;;;;;5000011;28;20437;-65
2022/05/28 10:54:37;;;;;;;1.30;0.50;;;17.00;64.20;;;;;;4986159;28;20425;-65
2022/05/28 10:57:34;;;;;;;2.10;0.97;;;17.00;64.80;;;;;;4993441;28;20502;-66
2022/05/28 11:00:08;;;;;;;2.40;0.90;;;17.20;65.70;;;;;;4988127;28;20426;-65
2022/05/28 11:02:44;;;;;;;2.30;0.67;;;17.20;65.40;;;;;;4996830;28;20856;-65
2022/05/28 11:05:31;;;;;;;2.53;0.90;;;17.00;62.40;;;;;;5002955;28;20480;-65
2022/05/28 11:08:08;;;;;;;3.93;0.63;;;17.10;60.30;;;;;;4988771;28;21398;-65
2022/05/28 11:10:58;;;;;;;4.80;1.00;;;17.20;65.20;;;;;;4986238;28;20454;-65
2022/05/28 11:13:30;;;;;;;1.80;0.70;;;17.40;65.00;;;;;;4998808;28;20553;-65
2022/05/28 11:16:04;;;;;;;2.80;0.80;;;17.50;59.20;;;;;;4997135;28;20450;-65
2022/05/28 11:18:40;;;;;;;2.63;0.73;;;17.60;57.90;;;;;;4995327;28;20429;-65
2022/05/28 11:21:36;;;;;;;2.43;1.00;;;17.60;59.10;;;;;;5008813;28;20446;-65
2022/05/28 11:24:09;;;;;;;2.00;0.80;;;17.40;61.10;;;;;;4985914;28;20973;-64
2022/05/28 11:27:09;;;;;;;11.50;1.47;;;17.20;63.60;;;;;;4989178;28;21014;-65
2022/05/28 11:29:41;;;;;;;5.00;1.37;;;16.70;67.10;;;;;;4967245;28;20446;-65
2022/05/28 11:32:16;;;;;;;2.07;0.60;;;16.50;67.20;;;;;;4990691;28;20454;-65
2022/05/28 11:34:47;;;;;;;4.47;1.17;;;16.30;69.70;;;;;;5005364;28;21198;-65
2022/05/28 11:37:41;;;;;;;4.27;0.77;;;16.20;69.60;;;;;;4984851;28;20432;-65
2022/05/28 11:40:12;;;;;;;4.90;1.13;;;16.30;69.50;;;;;;4988356;28;20438;-65
2022/05/28 11:43:01;;;;;;;1.97;0.80;;;16.90;67.90;;;;;;4989899;28;20434;-65
2022/05/28 11:45:42;;;;;;;4.30;1.03;;;17.10;68.40;;;;;;4984938;28;20478;-66
2022/05/28 11:48:16;;;;;;;6.03;0.90;;;17.30;66.50;;;;;;4995196;28;20810;-66
2022/05/28 11:53:48;;;;;;;3.83;0.90;;;17.30;68.10;;;;;;4992645;28;20519;-65
2022/05/28 11:56:17;;;;;;;4.20;1.00;;;17.30;62.90;;;;;;4988460;28;20486;-66
2022/05/28 11:58:48;;;;;;;9.23;0.90;;;17.10;61.60;;;;;;4992574;28;20558;-65
2022/05/28 12:01:24;;;;;;;3.00;1.17;;;17.00;63.30;;;;;;4980449;28;20439;-66
2022/05/28 12:03:52;;;;;;;1.83;0.90;;;16.90;60.80;;;;;;4994311;28;20442;-66
2022/05/28 12:06:27;;;;;;;2.80;0.93;;;16.90;60.60;;;;;;4981671;28;20454;-66
2022/05/28 12:09:06;;;;;;;3.70;0.80;;;17.00;60.30;;;;;;4983404;28;20427;-66
2022/05/28 12:11:31;;;;;;;1.90;0.60;;;17.00;59.90;;;;;;4989180;28;20777;-65
2022/05/28 12:14:20;;;;;;;4.80;1.43;;;17.00;61.40;;;;;;4998004;28;20535;-66
2022/05/28 12:17:07;;;;;;;8.13;1.33;;;17.10;63.40;;;;;;4995639;28;20179;-65
2022/05/28 12:19:34;;;;;;;3.83;0.90;;;17.20;60.60;;;;;;4991520;28;20438;-65
2022/05/28 12:22:31;;;;;;;6.73;0.70;;;17.40;59.30;;;;;;4986667;28;20541;-65
2022/05/28 12:25:19;;;;;;;7.93;1.43;;;17.30;61.10;;;;;;4977908;28;21100;-65
2022/05/28 12:27:54;;;;;;;8.70;1.13;;;17.60;61.00;;;;;;4981833;28;20507;-66
2022/05/28 12:30:47;;;;;;;1.63;0.70;;;18.00;58.80;;;;;;4981043;28;20940;-65
2022/05/28 12:33:28;;;;;;;3.50;1.00;;;18.20;57.10;;;;;;4975640;28;20951;-65
2022/05/28 12:36:17;;;;;;;2.60;0.80;;;18.40;63.30;;;;;;4984805;28;20431;-66
2022/05/28 12:39:22;;;;;;;2.27;0.87;;;18.40;59.60;;;;;;4981734;28;20926;-66
2022/05/28 12:41:59;;;;;;;2.93;1.00;;;18.50;58.50;;;;;;4989846;28;20461;-66
2022/05/28 12:44:27;;;;;;;4.93;1.00;;;18.80;56.90;;;;;;5001421;28;20458;-66
2022/05/28 12:46:54;;;;;;;3.10;1.10;;;18.40;58.50;;;;;;5006933;28;20988;-66
2022/05/28 12:49:20;;;;;;;2.63;0.80;;;18.20;58.70;;;;;;4994247;28;20415;-67
2022/05/28 12:51:58;;;;;;;8.97;0.80;;;18.00;59.00;;;;;;4984453;28;20423;-66
2022/05/28 12:54:30;;;;;;;3.47;1.40;;;17.90;63.70;;;;;;4997384;28;20221;-66
2022/05/28 12:57:07;;;;;;;7.73;1.07;;;17.90;61.90;;;;;;4987432;28;20513;-66
2022/05/28 12:59:37;;;;;;;11.07;1.00;;;17.70;59.60;;;;;;4978015;28;20431;-67
2022/05/28 13:02:06;;;;;;;2.03;0.87;;;17.90;61.30;;;;;;4992369;28;20449;-66
2022/05/28 13:04:39;;;;;;;2.70;0.90;;;18.30;59.90;;;;;;5000511;28;20803;-66
2022/05/28 13:07:13;;;;;;;2.40;0.90;;;18.50;59.70;;;;;;5002199;28;20465;-66
2022/05/28 13:09:40;;;;;;;4.00;0.93;;;18.50;60.70;;;;;;4993897;28;20511;-65
2022/05/28 13:12:11;;;;;;;1.80;0.70;;;18.70;59.80;;;;;;4997973;28;20473;-66
2022/05/28 13:15:10;;;;;;;3.13;1.00;;;18.80;59.00;;;;;;4992520;28;20968;-65